VKG342 LPMA-GVBA
Flight info
| Callsign | VKG342 |
|---|---|
| Flight time | N/A |
| Altitude | 35000 |
| Route | GOSGA UQ143 ORTIS N728 PITAB DCT TFS T770 URQUI/N0458F360 T770 LIMAL N873 IPERA DCT PINPO PINPO1P |
| Aircraft | A320/M-SDE3FGHIRWY/LB1 |
Departure
| Time | N/A |
|---|---|
| Airport | Cristiano Ronaldo International Airport (LPMA) |
Arrival
| Time | 2026-05-03 23:05 |
|---|---|
| Airport | Aristides Pereira International Airport (GVBA) |
| Time | Latitude | Longitude | Altitude | Speed | Heading |
|---|---|---|---|---|---|
| 2026-05-03 20:15 | 32.05750 | -16.62828 | 20185 ft | 407 kts | 180° |
| 2026-05-03 20:15 | 32.02925 | -16.62516 | 20719 ft | 409 kts | 180° |
| 2026-05-03 20:15 | 32.00080 | -16.62210 | 21256 ft | 412 kts | 180° |
| 2026-05-03 20:15 | 31.97208 | -16.61899 | 21789 ft | 415 kts | 180° |
| 2026-05-03 20:16 | 31.94325 | -16.61583 | 22316 ft | 418 kts | 180° |
| 2026-05-03 20:16 | 31.91455 | -16.61267 | 22832 ft | 420 kts | 180° |
| 2026-05-03 20:16 | 31.88533 | -16.60947 | 23341 ft | 423 kts | 181° |
| 2026-05-03 20:16 | 31.85585 | -16.60623 | 23821 ft | 426 kts | 181° |
| 2026-05-03 20:17 | 31.82629 | -16.60296 | 24246 ft | 428 kts | 181° |
| 2026-05-03 20:17 | 31.79653 | -16.59966 | 24676 ft | 430 kts | 181° |
| 2026-05-03 20:17 | 31.76664 | -16.59635 | 25061 ft | 433 kts | 180° |
| 2026-05-03 20:17 | 31.73654 | -16.59305 | 25472 ft | 435 kts | 181° |
| 2026-05-03 20:18 | 31.70633 | -16.58972 | 25887 ft | 438 kts | 181° |
| 2026-05-03 20:18 | 31.67592 | -16.58637 | 26299 ft | 440 kts | 181° |
| 2026-05-03 20:18 | 31.64540 | -16.58303 | 26706 ft | 442 kts | 181° |
| 2026-05-03 20:18 | 31.61465 | -16.57969 | 27101 ft | 444 kts | 181° |
| 2026-05-03 20:19 | 31.58382 | -16.57634 | 27487 ft | 446 kts | 181° |
| 2026-05-03 20:19 | 31.55290 | -16.57296 | 27858 ft | 448 kts | 181° |
| 2026-05-03 20:19 | 31.52214 | -16.56956 | 28208 ft | 450 kts | 181° |
| 2026-05-03 20:19 | 31.49095 | -16.56611 | 28601 ft | 451 kts | 181° |
| 2026-05-03 20:20 | 31.45965 | -16.56266 | 28954 ft | 453 kts | 181° |
| 2026-05-03 20:20 | 31.42820 | -16.55921 | 29303 ft | 455 kts | 181° |
| 2026-05-03 20:20 | 31.39666 | -16.55575 | 29741 ft | 455 kts | 181° |
| 2026-05-03 20:20 | 31.36523 | -16.55235 | 30229 ft | 453 kts | 181° |
| 2026-05-03 20:21 | 31.33390 | -16.54907 | 30658 ft | 451 kts | 181° |
| 2026-05-03 20:21 | 31.30267 | -16.54589 | 31075 ft | 449 kts | 182° |
| 2026-05-03 20:21 | 31.27156 | -16.54280 | 31485 ft | 448 kts | 182° |
| 2026-05-03 20:21 | 31.24052 | -16.53973 | 31854 ft | 448 kts | 181° |
| 2026-05-03 20:22 | 31.20952 | -16.53660 | 32227 ft | 447 kts | 181° |
| 2026-05-03 20:22 | 31.17849 | -16.53342 | 32610 ft | 447 kts | 181° |
| 2026-05-03 20:22 | 31.14751 | -16.53021 | 32991 ft | 447 kts | 181° |
| 2026-05-03 20:22 | 31.11654 | -16.52701 | 33376 ft | 446 kts | 181° |
| 2026-05-03 20:23 | 31.08562 | -16.52382 | 33762 ft | 446 kts | 181° |
| 2026-05-03 20:23 | 31.05473 | -16.52062 | 34131 ft | 445 kts | 181° |
| 2026-05-03 20:23 | 31.02385 | -16.51745 | 34468 ft | 444 kts | 182° |
| 2026-05-03 20:23 | 30.99311 | -16.51431 | 34826 ft | 443 kts | 182° |
| 2026-05-03 20:24 | 30.96265 | -16.51121 | 35215 ft | 441 kts | 182° |
| 2026-05-03 20:24 | 30.93202 | -16.50809 | 35609 ft | 438 kts | 182° |
| 2026-05-03 20:24 | 30.90647 | -16.50544 | 35919 ft | 437 kts | 182° |
| 2026-05-03 20:24 | 30.87624 | -16.50229 | 36074 ft | 436 kts | 182° |
| 2026-05-03 20:25 | 30.84636 | -16.49920 | 36107 ft | 436 kts | 182° |
| 2026-05-03 20:25 | 30.78598 | -16.49308 | 36106 ft | 435 kts | 182° |
| 2026-05-03 20:26 | 30.72564 | -16.48700 | 36083 ft | 435 kts | 182° |
| 2026-05-03 20:26 | 30.66522 | -16.48087 | 36103 ft | 435 kts | 182° |
| 2026-05-03 20:27 | 30.60485 | -16.47472 | 36103 ft | 436 kts | 182° |
| 2026-05-03 20:27 | 30.54448 | -16.46850 | 36102 ft | 435 kts | 182° |
| 2026-05-03 20:28 | 30.48414 | -16.46239 | 36100 ft | 435 kts | 182° |
| 2026-05-03 20:28 | 30.42377 | -16.45633 | 36082 ft | 435 kts | 182° |
| 2026-05-03 20:29 | 30.36345 | -16.45033 | 36087 ft | 434 kts | 184° |
| 2026-05-03 20:29 | 30.30437 | -16.45405 | 36092 ft | 426 kts | 192° |
| 2026-05-03 20:30 | 30.24531 | -16.46032 | 36094 ft | 426 kts | 192° |
| 2026-05-03 20:30 | 30.18620 | -16.46646 | 36077 ft | 426 kts | 192° |
| 2026-05-03 20:31 | 30.12694 | -16.47257 | 36086 ft | 426 kts | 192° |
| 2026-05-03 20:31 | 30.06778 | -16.47870 | 36092 ft | 426 kts | 192° |
| 2026-05-03 20:32 | 30.01863 | -16.48378 | 36095 ft | 427 kts | 192° |
| 2026-05-03 20:32 | 29.94982 | -16.49090 | 36102 ft | 427 kts | 192° |
| 2026-05-03 20:33 | 29.90017 | -16.49603 | 36072 ft | 426 kts | 192° |
| 2026-05-03 20:33 | 29.84153 | -16.50209 | 36085 ft | 426 kts | 192° |
| 2026-05-03 20:34 | 29.78237 | -16.50819 | 36094 ft | 426 kts | 192° |
| 2026-05-03 20:34 | 29.72331 | -16.51419 | 36099 ft | 426 kts | 192° |
| 2026-05-03 20:35 | 29.66424 | -16.52017 | 36101 ft | 426 kts | 192° |
| 2026-05-03 20:35 | 29.60526 | -16.52631 | 36101 ft | 425 kts | 192° |
| 2026-05-03 20:36 | 29.54630 | -16.53244 | 36101 ft | 425 kts | 192° |
| 2026-05-03 20:36 | 29.48733 | -16.53839 | 36100 ft | 425 kts | 192° |
| 2026-05-03 20:37 | 29.42832 | -16.54433 | 36097 ft | 425 kts | 192° |
| 2026-05-03 20:37 | 29.36938 | -16.55037 | 36099 ft | 425 kts | 192° |
| 2026-05-03 20:38 | 29.31041 | -16.55642 | 36082 ft | 425 kts | 192° |
| 2026-05-03 20:38 | 29.25149 | -16.56241 | 36089 ft | 425 kts | 192° |
| 2026-05-03 20:39 | 29.19254 | -16.56842 | 36087 ft | 425 kts | 192° |
| 2026-05-03 20:39 | 29.13365 | -16.57440 | 36091 ft | 425 kts | 192° |
| 2026-05-03 20:40 | 29.07480 | -16.58036 | 36098 ft | 425 kts | 192° |
| 2026-05-03 20:40 | 29.01585 | -16.58631 | 36078 ft | 425 kts | 192° |
| 2026-05-03 20:41 | 28.95699 | -16.59226 | 36091 ft | 424 kts | 192° |
| 2026-05-03 20:41 | 28.89811 | -16.59820 | 36096 ft | 424 kts | 192° |
| 2026-05-03 20:42 | 28.83931 | -16.60420 | 36093 ft | 424 kts | 192° |
| 2026-05-03 20:42 | 28.78049 | -16.61016 | 36076 ft | 424 kts | 192° |
| 2026-05-03 20:43 | 28.72168 | -16.61606 | 36083 ft | 424 kts | 192° |
| 2026-05-03 20:43 | 28.66324 | -16.62194 | 36095 ft | 424 kts | 192° |
| 2026-05-03 20:44 | 28.60444 | -16.62785 | 36099 ft | 424 kts | 192° |
| 2026-05-03 20:44 | 28.54555 | -16.63371 | 36102 ft | 424 kts | 192° |
| 2026-05-03 20:45 | 28.48673 | -16.63961 | 36079 ft | 424 kts | 192° |
| 2026-05-03 20:45 | 28.42796 | -16.64553 | 36088 ft | 424 kts | 192° |
| 2026-05-03 20:46 | 28.36924 | -16.65141 | 36096 ft | 424 kts | 192° |
| 2026-05-03 20:46 | 28.31052 | -16.65731 | 36097 ft | 423 kts | 192° |
| 2026-05-03 20:47 | 28.25180 | -16.66319 | 36102 ft | 424 kts | 192° |
| 2026-05-03 20:47 | 28.19312 | -16.66897 | 36070 ft | 424 kts | 192° |
| 2026-05-03 20:48 | 28.13428 | -16.67475 | 36084 ft | 423 kts | 192° |
| 2026-05-03 20:48 | 28.07554 | -16.68059 | 36074 ft | 423 kts | 192° |
| 2026-05-03 20:49 | 28.01693 | -16.68645 | 36077 ft | 422 kts | 193° |
| 2026-05-03 20:49 | 27.96067 | -16.70121 | 36091 ft | 413 kts | 202° |
| 2026-05-03 20:50 | 27.90567 | -16.71900 | 36063 ft | 413 kts | 202° |
| 2026-05-03 20:50 | 27.85039 | -16.73674 | 36071 ft | 413 kts | 202° |
| 2026-05-03 20:51 | 27.79514 | -16.75437 | 36073 ft | 412 kts | 202° |
| 2026-05-03 20:51 | 27.73999 | -16.77196 | 36078 ft | 412 kts | 202° |
| 2026-05-03 20:52 | 27.68468 | -16.78968 | 36081 ft | 413 kts | 202° |
| 2026-05-03 20:52 | 27.62941 | -16.80728 | 36083 ft | 412 kts | 202° |
| 2026-05-03 20:53 | 27.57423 | -16.82484 | 36078 ft | 412 kts | 202° |
| 2026-05-03 20:53 | 27.51912 | -16.84238 | 36081 ft | 411 kts | 202° |
| 2026-05-03 20:54 | 27.46401 | -16.85988 | 36081 ft | 411 kts | 202° |
| 2026-05-03 20:54 | 27.38132 | -16.88605 | 36084 ft | 411 kts | 202° |
| 2026-05-03 20:55 | 27.32621 | -16.90351 | 36084 ft | 411 kts | 202° |
| 2026-05-03 20:55 | 27.27110 | -16.92099 | 36078 ft | 411 kts | 202° |
| 2026-05-03 20:56 | 27.21612 | -16.93846 | 36091 ft | 410 kts | 202° |
| 2026-05-03 20:56 | 27.16117 | -16.95586 | 36094 ft | 410 kts | 202° |
| 2026-05-03 20:57 | 27.10629 | -16.97318 | 36088 ft | 410 kts | 202° |
| 2026-05-03 20:57 | 27.05139 | -16.99048 | 36087 ft | 409 kts | 202° |
| 2026-05-03 20:58 | 26.99657 | -17.00778 | 36062 ft | 409 kts | 203° |
| 2026-05-03 20:58 | 26.94184 | -17.02503 | 36078 ft | 408 kts | 203° |
| 2026-05-03 20:59 | 26.88719 | -17.04219 | 36082 ft | 408 kts | 203° |
| 2026-05-03 20:59 | 26.83290 | -17.05927 | 36097 ft | 408 kts | 202° |
| 2026-05-03 21:00 | 26.79622 | -17.07081 | 36095 ft | 408 kts | 202° |
| 2026-05-03 21:00 | 26.72343 | -17.09364 | 36091 ft | 408 kts | 202° |
| 2026-05-03 21:01 | 26.66871 | -17.11077 | 36090 ft | 408 kts | 202° |
| 2026-05-03 21:01 | 26.61405 | -17.12786 | 36086 ft | 408 kts | 202° |
| 2026-05-03 21:02 | 26.55938 | -17.14500 | 36084 ft | 408 kts | 202° |
| 2026-05-03 21:02 | 26.50465 | -17.16213 | 36085 ft | 408 kts | 202° |
| 2026-05-03 21:03 | 26.44996 | -17.17914 | 36084 ft | 408 kts | 202° |
| 2026-05-03 21:03 | 26.39519 | -17.19611 | 36062 ft | 408 kts | 203° |
| 2026-05-03 21:04 | 26.34094 | -17.21297 | 36085 ft | 407 kts | 203° |
| 2026-05-03 21:04 | 26.28646 | -17.22990 | 36090 ft | 406 kts | 203° |
| 2026-05-03 21:05 | 26.23205 | -17.24676 | 36091 ft | 405 kts | 203° |
| 2026-05-03 21:05 | 26.17768 | -17.26373 | 36089 ft | 405 kts | 203° |
| 2026-05-03 21:06 | 26.12338 | -17.28065 | 36087 ft | 405 kts | 203° |
| 2026-05-03 21:06 | 26.06942 | -17.29738 | 36082 ft | 404 kts | 203° |
| 2026-05-03 21:07 | 26.01525 | -17.31414 | 36087 ft | 404 kts | 203° |
| 2026-05-03 21:07 | 25.96108 | -17.33086 | 36090 ft | 403 kts | 203° |
| 2026-05-03 21:08 | 25.90706 | -17.34759 | 36090 ft | 403 kts | 203° |
| 2026-05-03 21:08 | 25.85296 | -17.36428 | 36090 ft | 403 kts | 203° |
| 2026-05-03 21:09 | 25.79896 | -17.38088 | 36057 ft | 403 kts | 203° |
| 2026-05-03 21:09 | 25.74505 | -17.39748 | 36081 ft | 402 kts | 203° |
| 2026-05-03 21:10 | 25.69152 | -17.41397 | 36085 ft | 401 kts | 203° |
| 2026-05-03 21:10 | 25.63761 | -17.43054 | 36087 ft | 401 kts | 203° |
| 2026-05-03 21:11 | 25.58384 | -17.44705 | 36085 ft | 401 kts | 203° |
| 2026-05-03 21:11 | 25.53005 | -17.46361 | 36081 ft | 401 kts | 203° |
| 2026-05-03 21:12 | 25.48540 | -17.47728 | 36060 ft | 401 kts | 203° |
| 2026-05-03 21:12 | 25.42255 | -17.49659 | 36068 ft | 401 kts | 203° |
| 2026-05-03 21:13 | 25.37785 | -17.51024 | 36068 ft | 401 kts | 203° |
| 2026-05-03 21:13 | 25.32403 | -17.52667 | 36073 ft | 401 kts | 203° |
| 2026-05-03 21:14 | 25.27026 | -17.54313 | 36072 ft | 401 kts | 203° |
| 2026-05-03 21:14 | 25.21634 | -17.55960 | 36073 ft | 401 kts | 203° |
| 2026-05-03 21:15 | 25.16252 | -17.57608 | 36049 ft | 401 kts | 202° |
| 2026-05-03 21:15 | 25.10866 | -17.59252 | 36047 ft | 402 kts | 202° |
| 2026-05-03 21:16 | 25.05465 | -17.60888 | 36047 ft | 402 kts | 202° |
| 2026-05-03 21:16 | 25.00131 | -17.62685 | 36052 ft | 396 kts | 210° |
| 2026-05-03 21:17 | 24.95460 | -17.65688 | 36058 ft | 390 kts | 217° |
| 2026-05-03 21:17 | 24.90866 | -17.68873 | 36052 ft | 390 kts | 217° |
| 2026-05-03 21:18 | 24.86266 | -17.72047 | 36031 ft | 390 kts | 217° |
| 2026-05-03 21:18 | 24.81658 | -17.75218 | 36046 ft | 390 kts | 217° |
| 2026-05-03 21:19 | 24.77050 | -17.78388 | 36055 ft | 390 kts | 217° |
| 2026-05-03 21:19 | 24.72445 | -17.81555 | 36062 ft | 390 kts | 217° |
| 2026-05-03 21:20 | 24.67843 | -17.84721 | 36062 ft | 390 kts | 217° |
| 2026-05-03 21:20 | 24.63239 | -17.87879 | 36059 ft | 390 kts | 217° |
| 2026-05-03 21:21 | 24.58631 | -17.91037 | 36063 ft | 390 kts | 217° |
| 2026-05-03 21:21 | 24.54033 | -17.94197 | 36038 ft | 390 kts | 217° |
| 2026-05-03 21:22 | 24.49429 | -17.97348 | 36039 ft | 389 kts | 217° |
| 2026-05-03 21:22 | 24.44868 | -18.00475 | 36046 ft | 389 kts | 217° |
| 2026-05-03 21:23 | 24.40276 | -18.03621 | 36050 ft | 389 kts | 217° |
| 2026-05-03 21:23 | 24.35675 | -18.06760 | 36053 ft | 389 kts | 217° |
| 2026-05-03 21:24 | 24.31073 | -18.09897 | 36066 ft | 389 kts | 217° |
| 2026-05-03 21:24 | 24.26473 | -18.13033 | 36065 ft | 390 kts | 217° |
| 2026-05-03 21:25 | 24.21865 | -18.16172 | 36059 ft | 390 kts | 217° |
| 2026-05-03 21:25 | 24.17255 | -18.19311 | 36032 ft | 390 kts | 217° |
| 2026-05-03 21:26 | 24.12651 | -18.22448 | 36046 ft | 390 kts | 217° |
| 2026-05-03 21:26 | 24.08041 | -18.25587 | 36044 ft | 390 kts | 217° |
| 2026-05-03 21:27 | 24.03426 | -18.28717 | 36051 ft | 390 kts | 217° |
| 2026-05-03 21:27 | 23.98813 | -18.31839 | 36048 ft | 389 kts | 217° |
| 2026-05-03 21:28 | 23.94240 | -18.34943 | 36048 ft | 389 kts | 217° |
| 2026-05-03 21:28 | 23.89638 | -18.38068 | 36044 ft | 389 kts | 217° |
| 2026-05-03 21:29 | 23.85031 | -18.41184 | 36026 ft | 390 kts | 217° |
| 2026-05-03 21:29 | 23.80417 | -18.44302 | 36032 ft | 389 kts | 217° |
| 2026-05-03 21:30 | 23.75806 | -18.47419 | 36030 ft | 389 kts | 217° |
| 2026-05-03 21:30 | 23.71199 | -18.50533 | 36034 ft | 390 kts | 217° |
| 2026-05-03 21:31 | 23.66585 | -18.53649 | 36037 ft | 390 kts | 217° |
| 2026-05-03 21:31 | 23.61967 | -18.56762 | 36036 ft | 390 kts | 217° |
| 2026-05-03 21:32 | 23.57349 | -18.59862 | 36035 ft | 390 kts | 216° |
| 2026-05-03 21:32 | 23.52731 | -18.62959 | 36033 ft | 389 kts | 217° |
| 2026-05-03 21:33 | 23.48123 | -18.66059 | 36031 ft | 389 kts | 217° |
| 2026-05-03 21:33 | 23.43518 | -18.69158 | 36030 ft | 390 kts | 217° |
| 2026-05-03 21:34 | 23.38897 | -18.72261 | 36031 ft | 389 kts | 216° |
| 2026-05-03 21:34 | 23.34284 | -18.75352 | 36028 ft | 389 kts | 217° |
| 2026-05-03 21:35 | 23.29696 | -18.78434 | 36031 ft | 390 kts | 217° |
| 2026-05-03 21:35 | 23.25076 | -18.81530 | 36031 ft | 390 kts | 216° |
| 2026-05-03 21:36 | 23.20458 | -18.84617 | 36004 ft | 390 kts | 216° |
| 2026-05-03 21:36 | 23.15840 | -18.87704 | 36011 ft | 390 kts | 216° |
| 2026-05-03 21:37 | 23.11217 | -18.90788 | 36016 ft | 390 kts | 216° |
| 2026-05-03 21:37 | 23.06592 | -18.93872 | 36015 ft | 390 kts | 216° |
| 2026-05-03 21:38 | 23.01960 | -18.96967 | 36022 ft | 391 kts | 216° |
| 2026-05-03 21:38 | 22.97324 | -19.00055 | 36025 ft | 391 kts | 216° |
| 2026-05-03 21:39 | 22.92693 | -19.03137 | 36027 ft | 390 kts | 216° |
| 2026-05-03 21:39 | 22.88059 | -19.06217 | 35997 ft | 390 kts | 216° |
| 2026-05-03 21:40 | 22.83419 | -19.09298 | 35999 ft | 391 kts | 216° |
| 2026-05-03 21:40 | 22.78772 | -19.12383 | 36016 ft | 392 kts | 216° |
| 2026-05-03 21:41 | 22.74124 | -19.15472 | 36020 ft | 392 kts | 216° |
| 2026-05-03 21:41 | 22.69471 | -19.18557 | 36024 ft | 392 kts | 216° |
| 2026-05-03 21:42 | 22.64838 | -19.21622 | 36028 ft | 392 kts | 216° |
| 2026-05-03 21:42 | 22.60193 | -19.24708 | 36031 ft | 392 kts | 216° |
| 2026-05-03 21:43 | 22.55542 | -19.27790 | 36031 ft | 392 kts | 216° |
| 2026-05-03 21:43 | 22.50885 | -19.30865 | 35995 ft | 393 kts | 216° |
| 2026-05-03 21:44 | 22.46211 | -19.33944 | 35999 ft | 394 kts | 216° |
| 2026-05-03 21:44 | 22.41517 | -19.37032 | 35999 ft | 395 kts | 216° |
| 2026-05-03 21:45 | 22.36826 | -19.40123 | 36006 ft | 395 kts | 216° |
| 2026-05-03 21:45 | 22.32125 | -19.43222 | 36009 ft | 396 kts | 216° |
| 2026-05-03 21:46 | 22.27430 | -19.46322 | 36022 ft | 395 kts | 216° |
| 2026-05-03 21:46 | 22.22734 | -19.49412 | 36029 ft | 394 kts | 216° |
| 2026-05-03 21:47 | 22.18049 | -19.52498 | 35993 ft | 395 kts | 216° |
| 2026-05-03 21:47 | 22.13348 | -19.55584 | 35995 ft | 396 kts | 216° |
| 2026-05-03 21:48 | 22.08635 | -19.58675 | 35998 ft | 397 kts | 216° |
| 2026-05-03 21:48 | 22.03921 | -19.61769 | 36001 ft | 397 kts | 216° |
| 2026-05-03 21:49 | 21.99194 | -19.64861 | 36001 ft | 397 kts | 216° |
| 2026-05-03 21:49 | 21.94457 | -19.67946 | 36005 ft | 398 kts | 216° |
| 2026-05-03 21:50 | 21.89723 | -19.71039 | 36013 ft | 398 kts | 216° |
| 2026-05-03 21:50 | 21.85017 | -19.74118 | 35993 ft | 399 kts | 216° |
| 2026-05-03 21:51 | 21.80269 | -19.77228 | 35997 ft | 400 kts | 216° |
| 2026-05-03 21:51 | 21.75504 | -19.80339 | 36014 ft | 401 kts | 216° |
| 2026-05-03 21:52 | 21.70734 | -19.83440 | 36017 ft | 401 kts | 215° |
| 2026-05-03 21:52 | 21.65968 | -19.86541 | 36022 ft | 400 kts | 216° |
| 2026-05-03 21:53 | 21.61367 | -19.89549 | 36023 ft | 400 kts | 216° |
| 2026-05-03 21:53 | 21.56614 | -19.92643 | 36023 ft | 400 kts | 215° |
| 2026-05-03 21:54 | 21.51858 | -19.95732 | 35993 ft | 400 kts | 215° |
| 2026-05-03 21:54 | 21.47894 | -19.98305 | 35994 ft | 400 kts | 215° |
| 2026-05-03 21:55 | 21.43119 | -20.01404 | 35997 ft | 401 kts | 215° |
| 2026-05-03 21:55 | 21.38330 | -20.04519 | 36000 ft | 402 kts | 215° |
| 2026-05-03 21:56 | 21.33580 | -20.07593 | 36001 ft | 402 kts | 215° |
| 2026-05-03 21:56 | 21.28782 | -20.10688 | 36005 ft | 402 kts | 215° |
| 2026-05-03 21:57 | 21.23992 | -20.13782 | 36009 ft | 402 kts | 215° |
| 2026-05-03 21:57 | 21.19204 | -20.16886 | 35986 ft | 402 kts | 215° |
| 2026-05-03 21:58 | 21.14412 | -20.19987 | 35988 ft | 402 kts | 215° |
| 2026-05-03 21:58 | 21.09613 | -20.23078 | 35996 ft | 403 kts | 215° |
| 2026-05-03 21:59 | 21.04842 | -20.26153 | 36001 ft | 403 kts | 215° |
| 2026-05-03 21:59 | 21.00039 | -20.29256 | 36000 ft | 403 kts | 215° |
| 2026-05-03 22:00 | 20.95227 | -20.32356 | 36000 ft | 403 kts | 215° |
| 2026-05-03 22:00 | 20.90415 | -20.35454 | 35999 ft | 404 kts | 215° |
| 2026-05-03 22:01 | 20.85600 | -20.38547 | 35975 ft | 404 kts | 215° |
| 2026-05-03 22:01 | 20.80777 | -20.41643 | 35979 ft | 405 kts | 215° |
| 2026-05-03 22:02 | 20.75948 | -20.44747 | 35991 ft | 405 kts | 215° |
| 2026-05-03 22:02 | 20.71112 | -20.47852 | 36000 ft | 406 kts | 215° |
| 2026-05-03 22:03 | 20.66269 | -20.50960 | 36002 ft | 406 kts | 215° |
| 2026-05-03 22:03 | 20.61432 | -20.54064 | 36006 ft | 406 kts | 215° |
| 2026-05-03 22:04 | 20.56585 | -20.57157 | 36010 ft | 406 kts | 215° |
| 2026-05-03 22:04 | 20.51776 | -20.60235 | 35998 ft | 405 kts | 215° |
| 2026-05-03 22:05 | 20.46938 | -20.63331 | 35993 ft | 405 kts | 215° |
| 2026-05-03 22:05 | 20.42106 | -20.66419 | 35997 ft | 405 kts | 215° |
| 2026-05-03 22:06 | 20.37266 | -20.69499 | 36000 ft | 405 kts | 214° |
| 2026-05-03 22:06 | 20.32108 | -20.72035 | 35999 ft | 409 kts | 208° |
| 2026-05-03 22:07 | 20.26888 | -20.74457 | 36003 ft | 409 kts | 208° |
| 2026-05-03 22:07 | 20.21672 | -20.76876 | 36001 ft | 409 kts | 208° |
| 2026-05-03 22:08 | 20.16457 | -20.79293 | 36001 ft | 409 kts | 208° |
| 2026-05-03 22:08 | 20.11241 | -20.81711 | 36001 ft | 409 kts | 208° |
| 2026-05-03 22:09 | 20.06026 | -20.84121 | 36000 ft | 409 kts | 208° |
| 2026-05-03 22:10 | 19.98195 | -20.87742 | 36002 ft | 409 kts | 208° |
| 2026-05-03 22:10 | 19.92984 | -20.90157 | 36000 ft | 409 kts | 208° |
| 2026-05-03 22:11 | 19.87791 | -20.92551 | 35999 ft | 409 kts | 208° |
| 2026-05-03 22:11 | 19.82574 | -20.94955 | 35981 ft | 409 kts | 208° |
| 2026-05-03 22:12 | 19.77357 | -20.97367 | 35984 ft | 409 kts | 208° |
| 2026-05-03 22:12 | 19.72135 | -20.99779 | 35984 ft | 409 kts | 208° |
| 2026-05-03 22:13 | 19.66905 | -21.02180 | 35989 ft | 410 kts | 208° |
| 2026-05-03 22:13 | 19.61698 | -21.04569 | 35998 ft | 399 kts | 208° |
| 2026-05-03 22:13 | 19.59194 | -21.05713 | 36000 ft | 383 kts | 208° |
| 2026-05-03 22:14 | 19.56797 | -21.06806 | 35997 ft | 367 kts | 209° |
| 2026-05-03 22:14 | 19.54498 | -21.07857 | 35998 ft | 352 kts | 209° |
| 2026-05-03 22:14 | 19.52277 | -21.08875 | 35996 ft | 345 kts | 209° |
| 2026-05-03 22:15 | 19.47881 | -21.10901 | 35999 ft | 344 kts | 209° |
| 2026-05-03 22:15 | 19.43487 | -21.12931 | 36004 ft | 344 kts | 209° |
| 2026-05-03 22:16 | 19.39094 | -21.14954 | 36001 ft | 344 kts | 209° |
| 2026-05-03 22:16 | 19.34731 | -21.16961 | 36002 ft | 343 kts | 209° |
| 2026-05-03 22:17 | 19.30346 | -21.18966 | 36001 ft | 343 kts | 209° |
| 2026-05-03 22:17 | 19.25963 | -21.20971 | 36004 ft | 343 kts | 209° |
| 2026-05-03 22:18 | 19.21578 | -21.22976 | 35997 ft | 343 kts | 209° |
| 2026-05-03 22:18 | 19.17196 | -21.24982 | 36000 ft | 344 kts | 209° |
| 2026-05-03 22:19 | 19.12795 | -21.26996 | 36005 ft | 345 kts | 208° |
| 2026-05-03 22:19 | 19.08383 | -21.29009 | 35952 ft | 349 kts | 208° |
| 2026-05-03 22:20 | 19.03917 | -21.31046 | 35993 ft | 349 kts | 209° |
| 2026-05-03 22:20 | 18.99469 | -21.33072 | 35994 ft | 348 kts | 209° |
| 2026-05-03 22:21 | 18.95019 | -21.35098 | 35995 ft | 348 kts | 209° |
| 2026-05-03 22:21 | 18.90601 | -21.37120 | 35995 ft | 348 kts | 209° |
| 2026-05-03 22:22 | 18.86160 | -21.39152 | 35994 ft | 348 kts | 209° |
| 2026-05-03 22:22 | 18.81703 | -21.41176 | 35991 ft | 348 kts | 209° |
| 2026-05-03 22:23 | 18.77249 | -21.43204 | 35996 ft | 348 kts | 209° |
| 2026-05-03 22:23 | 18.72801 | -21.45225 | 35994 ft | 348 kts | 209° |
| 2026-05-03 22:24 | 18.68351 | -21.47240 | 35998 ft | 348 kts | 209° |
| 2026-05-03 22:24 | 18.63941 | -21.49239 | 35996 ft | 347 kts | 209° |
| 2026-05-03 22:25 | 18.59509 | -21.51254 | 35993 ft | 347 kts | 209° |
| 2026-05-03 22:25 | 18.55078 | -21.53268 | 35992 ft | 347 kts | 209° |
| 2026-05-03 22:26 | 18.50632 | -21.55283 | 35976 ft | 348 kts | 209° |
| 2026-05-03 22:26 | 18.46171 | -21.57303 | 35995 ft | 350 kts | 209° |
| 2026-05-03 22:27 | 18.41698 | -21.59328 | 35993 ft | 350 kts | 209° |
| 2026-05-03 22:27 | 18.37226 | -21.61355 | 35994 ft | 350 kts | 209° |
| 2026-05-03 22:28 | 18.32753 | -21.63381 | 35990 ft | 350 kts | 209° |
| 2026-05-03 22:28 | 18.28273 | -21.65404 | 35781 ft | 354 kts | 209° |
| 2026-05-03 22:28 | 18.26015 | -21.66419 | 35546 ft | 348 kts | 209° |
| 2026-05-03 22:29 | 18.23792 | -21.67418 | 35475 ft | 347 kts | 209° |
| 2026-05-03 22:29 | 18.19240 | -21.69480 | 35324 ft | 369 kts | 209° |
| 2026-05-03 22:29 | 18.16847 | -21.70575 | 35235 ft | 382 kts | 208° |
| 2026-05-03 22:30 | 18.14371 | -21.71703 | 35152 ft | 394 kts | 208° |
| 2026-05-03 22:30 | 18.11813 | -21.72863 | 35070 ft | 406 kts | 208° |
| 2026-05-03 22:30 | 18.09214 | -21.74035 | 34986 ft | 418 kts | 208° |
| 2026-05-03 22:30 | 18.06500 | -21.75255 | 34897 ft | 430 kts | 208° |
| 2026-05-03 22:31 | 18.03718 | -21.76507 | 34808 ft | 437 kts | 207° |
| 2026-05-03 22:31 | 17.98094 | -21.79027 | 34626 ft | 440 kts | 207° |
| 2026-05-03 22:32 | 17.92462 | -21.81552 | 34450 ft | 439 kts | 207° |
| 2026-05-03 22:32 | 17.86864 | -21.84062 | 34269 ft | 437 kts | 207° |
| 2026-05-03 22:33 | 17.81281 | -21.86572 | 34079 ft | 437 kts | 207° |
| 2026-05-03 22:33 | 17.75677 | -21.89097 | 33856 ft | 438 kts | 207° |
| 2026-05-03 22:33 | 17.72857 | -21.90367 | 32879 ft | 443 kts | 207° |
| 2026-05-03 22:34 | 17.69998 | -21.91656 | 31842 ft | 447 kts | 206° |
| 2026-05-03 22:34 | 17.67161 | -21.92933 | 30831 ft | 450 kts | 206° |
| 2026-05-03 22:34 | 17.64267 | -21.94233 | 29697 ft | 455 kts | 206° |
| 2026-05-03 22:34 | 17.61378 | -21.95527 | 29137 ft | 445 kts | 206° |
| 2026-05-03 22:35 | 17.58564 | -21.96788 | 28593 ft | 436 kts | 206° |
| 2026-05-03 22:35 | 17.55803 | -21.98032 | 28007 ft | 428 kts | 206° |
| 2026-05-03 22:35 | 17.53097 | -21.99255 | 27445 ft | 421 kts | 206° |
| 2026-05-03 22:35 | 17.50412 | -22.00472 | 26890 ft | 426 kts | 206° |
| 2026-05-03 22:36 | 17.47652 | -22.01729 | 26291 ft | 435 kts | 205° |
| 2026-05-03 22:36 | 17.44871 | -22.02993 | 25735 ft | 436 kts | 205° |
| 2026-05-03 22:36 | 17.42091 | -22.04250 | 25145 ft | 434 kts | 205° |
| 2026-05-03 22:36 | 17.39315 | -22.05501 | 24566 ft | 432 kts | 204° |
| 2026-05-03 22:37 | 17.36558 | -22.06739 | 23998 ft | 430 kts | 204° |
| 2026-05-03 22:37 | 17.33816 | -22.07968 | 23398 ft | 427 kts | 204° |
| 2026-05-03 22:37 | 17.31091 | -22.09189 | 22798 ft | 424 kts | 204° |
| 2026-05-03 22:37 | 17.28367 | -22.10410 | 22226 ft | 435 kts | 204° |
| 2026-05-03 22:38 | 17.25511 | -22.11697 | 21632 ft | 455 kts | 204° |
| 2026-05-03 22:38 | 17.23577 | -22.12570 | 21227 ft | 459 kts | 204° |
| 2026-05-03 22:38 | 17.20644 | -22.13892 | 20616 ft | 459 kts | 205° |
| 2026-05-03 22:38 | 17.17723 | -22.15206 | 20025 ft | 456 kts | 205° |
| 2026-05-03 22:39 | 17.14844 | -22.16496 | 19447 ft | 453 kts | 204° |
| 2026-05-03 22:39 | 17.11912 | -22.17810 | 18868 ft | 453 kts | 204° |
| 2026-05-03 22:39 | 17.09032 | -22.19101 | 18307 ft | 450 kts | 204° |
| 2026-05-03 22:39 | 17.06173 | -22.20385 | 17671 ft | 442 kts | 204° |
| 2026-05-03 22:40 | 17.03366 | -22.21644 | 17037 ft | 434 kts | 204° |
| 2026-05-03 22:40 | 17.00615 | -22.22876 | 16418 ft | 426 kts | 204° |
| 2026-05-03 22:40 | 16.97913 | -22.24089 | 15813 ft | 419 kts | 204° |
| 2026-05-03 22:40 | 16.95252 | -22.25285 | 15220 ft | 413 kts | 204° |
| 2026-05-03 22:41 | 16.92633 | -22.26462 | 14636 ft | 407 kts | 204° |
| 2026-05-03 22:41 | 16.90051 | -22.27622 | 14064 ft | 401 kts | 204° |
| 2026-05-03 22:41 | 16.87535 | -22.28753 | 13467 ft | 396 kts | 203° |
| 2026-05-03 22:41 | 16.85020 | -22.29879 | 12837 ft | 391 kts | 203° |
| 2026-05-03 22:42 | 16.82535 | -22.30989 | 12212 ft | 386 kts | 203° |
| 2026-05-03 22:42 | 16.80083 | -22.32085 | 11669 ft | 379 kts | 203° |
| 2026-05-03 22:42 | 16.77704 | -22.33150 | 11398 ft | 365 kts | 202° |
| 2026-05-03 22:42 | 16.75412 | -22.34176 | 11141 ft | 352 kts | 202° |
| 2026-05-03 22:43 | 16.73199 | -22.35166 | 10873 ft | 340 kts | 202° |
| 2026-05-03 22:43 | 16.71060 | -22.36122 | 10622 ft | 329 kts | 202° |
| 2026-05-03 22:43 | 16.68984 | -22.37052 | 10370 ft | 319 kts | 202° |
| 2026-05-03 22:43 | 16.66969 | -22.37955 | 10116 ft | 311 kts | 202° |
| 2026-05-03 22:44 | 16.65010 | -22.38831 | 9864 ft | 303 kts | 202° |
| 2026-05-03 22:44 | 16.63096 | -22.39685 | 9590 ft | 295 kts | 202° |
| 2026-05-03 22:44 | 16.61231 | -22.40517 | 9315 ft | 288 kts | 202° |
| 2026-05-03 22:44 | 16.59413 | -22.41328 | 9041 ft | 281 kts | 202° |
| 2026-05-03 22:45 | 16.57634 | -22.42125 | 8768 ft | 275 kts | 203° |
| 2026-05-03 22:45 | 16.55896 | -22.42903 | 8499 ft | 269 kts | 203° |
| 2026-05-03 22:45 | 16.54194 | -22.43659 | 8237 ft | 263 kts | 203° |
| 2026-05-03 22:45 | 16.52521 | -22.44399 | 7979 ft | 258 kts | 204° |
| 2026-05-03 22:46 | 16.50885 | -22.45125 | 7711 ft | 253 kts | 204° |
| 2026-05-03 22:46 | 16.49269 | -22.45847 | 7451 ft | 252 kts | 204° |
| 2026-05-03 22:46 | 16.47659 | -22.46566 | 7149 ft | 251 kts | 204° |
| 2026-05-03 22:46 | 16.46044 | -22.47289 | 6895 ft | 254 kts | 204° |
| 2026-05-03 22:47 | 16.44418 | -22.48016 | 6641 ft | 255 kts | 204° |
| 2026-05-03 22:47 | 16.42788 | -22.48744 | 6387 ft | 255 kts | 205° |
| 2026-05-03 22:47 | 16.41171 | -22.49466 | 6111 ft | 256 kts | 205° |
| 2026-05-03 22:47 | 16.39537 | -22.50194 | 5813 ft | 255 kts | 205° |
| 2026-05-03 22:48 | 16.37893 | -22.50926 | 5542 ft | 257 kts | 205° |
| 2026-05-03 22:48 | 16.36253 | -22.51655 | 5287 ft | 256 kts | 205° |
| 2026-05-03 22:48 | 16.34608 | -22.52383 | 5078 ft | 256 kts | 205° |
| 2026-05-03 22:48 | 16.32966 | -22.53110 | 4937 ft | 257 kts | 205° |
| 2026-05-03 22:49 | 16.31318 | -22.53843 | 4795 ft | 257 kts | 205° |
| 2026-05-03 22:49 | 16.29676 | -22.54575 | 4651 ft | 256 kts | 205° |
| 2026-05-03 22:49 | 16.28061 | -22.55354 | 4504 ft | 255 kts | 212° |
| 2026-05-03 22:49 | 16.26642 | -22.56403 | 4361 ft | 253 kts | 220° |
| 2026-05-03 22:50 | 16.25242 | -22.57522 | 4206 ft | 253 kts | 219° |
| 2026-05-03 22:50 | 16.23842 | -22.58632 | 4101 ft | 254 kts | 219° |
| 2026-05-03 22:50 | 16.22433 | -22.59744 | 4025 ft | 254 kts | 219° |
| 2026-05-03 22:50 | 16.21027 | -22.60853 | 3950 ft | 254 kts | 219° |
| 2026-05-03 22:51 | 16.19614 | -22.61967 | 3867 ft | 255 kts | 219° |
| 2026-05-03 22:51 | 16.18201 | -22.63082 | 3802 ft | 254 kts | 219° |
| 2026-05-03 22:51 | 16.16792 | -22.64194 | 3731 ft | 255 kts | 219° |
| 2026-05-03 22:51 | 16.15382 | -22.65306 | 3660 ft | 254 kts | 219° |
| 2026-05-03 22:52 | 16.13971 | -22.66416 | 3596 ft | 254 kts | 219° |
| 2026-05-03 22:52 | 16.12563 | -22.67523 | 3516 ft | 254 kts | 218° |
| 2026-05-03 22:52 | 16.11175 | -22.68616 | 3441 ft | 244 kts | 218° |
| 2026-05-03 22:52 | 16.09851 | -22.69656 | 3368 ft | 231 kts | 219° |
| 2026-05-03 22:53 | 16.08605 | -22.70638 | 3294 ft | 219 kts | 219° |
| 2026-05-03 22:53 | 16.07421 | -22.71573 | 3222 ft | 209 kts | 219° |
| 2026-05-03 22:53 | 16.06289 | -22.72468 | 3118 ft | 201 kts | 219° |
| 2026-05-03 22:53 | 16.05174 | -22.73351 | 2944 ft | 201 kts | 218° |
| 2026-05-03 22:54 | 16.04067 | -22.74227 | 2859 ft | 200 kts | 218° |
| 2026-05-03 22:54 | 16.02960 | -22.75100 | 2790 ft | 199 kts | 217° |
| 2026-05-03 22:54 | 16.01864 | -22.75962 | 2721 ft | 201 kts | 217° |
| 2026-05-03 22:54 | 16.00733 | -22.76851 | 2639 ft | 200 kts | 217° |
| 2026-05-03 22:55 | 15.99633 | -22.77720 | 2554 ft | 201 kts | 217° |
| 2026-05-03 22:55 | 15.98518 | -22.78600 | 2504 ft | 199 kts | 217° |
| 2026-05-03 22:55 | 15.97436 | -22.79456 | 2506 ft | 193 kts | 217° |
| 2026-05-03 22:55 | 15.96377 | -22.80290 | 2544 ft | 189 kts | 217° |
| 2026-05-03 22:56 | 15.95329 | -22.81116 | 2520 ft | 189 kts | 218° |
| 2026-05-03 22:56 | 15.94285 | -22.81938 | 2516 ft | 188 kts | 217° |
| 2026-05-03 22:56 | 15.93243 | -22.82755 | 2515 ft | 187 kts | 217° |
| 2026-05-03 22:56 | 15.92227 | -22.83604 | 2516 ft | 187 kts | 225° |
| 2026-05-03 22:57 | 15.91422 | -22.84660 | 2514 ft | 186 kts | 241° |
| 2026-05-03 22:57 | 15.90897 | -22.85889 | 2514 ft | 186 kts | 257° |
| 2026-05-03 22:57 | 15.90684 | -22.87203 | 2513 ft | 183 kts | 273° |
| 2026-05-03 22:57 | 15.90783 | -22.88503 | 2522 ft | 178 kts | 287° |
| 2026-05-03 22:58 | 15.91117 | -22.89724 | 2517 ft | 175 kts | 292° |
| 2026-05-03 22:58 | 15.91470 | -22.90933 | 2521 ft | 175 kts | 292° |
| 2026-05-03 22:58 | 15.91819 | -22.92141 | 2524 ft | 174 kts | 292° |
| 2026-05-03 22:58 | 15.92295 | -22.93255 | 2513 ft | 162 kts | 312° |
| 2026-05-03 22:59 | 15.93066 | -22.94048 | 2515 ft | 153 kts | 332° |
| 2026-05-03 22:59 | 15.94011 | -22.94494 | 2517 ft | 147 kts | 350° |
| 2026-05-03 22:59 | 15.95013 | -22.94589 | 2515 ft | 144 kts | 7° |
| 2026-05-03 22:59 | 15.95979 | -22.94362 | 2516 ft | 144 kts | 19° |
| 2026-05-03 23:00 | 15.96951 | -22.94058 | 2527 ft | 145 kts | 19° |
| 2026-05-03 23:00 | 15.97899 | -22.93764 | 2520 ft | 143 kts | 20° |
| 2026-05-03 23:00 | 15.98856 | -22.93468 | 2514 ft | 144 kts | 19° |
| 2026-05-03 23:00 | 15.99816 | -22.93170 | 2509 ft | 144 kts | 18° |
| 2026-05-03 23:01 | 16.00781 | -22.92871 | 2512 ft | 145 kts | 19° |
| 2026-05-03 23:01 | 16.01757 | -22.92567 | 2411 ft | 147 kts | 20° |
| 2026-05-03 23:01 | 16.02718 | -22.92270 | 2234 ft | 143 kts | 18° |
| 2026-05-03 23:01 | 16.03671 | -22.91976 | 2032 ft | 142 kts | 18° |
| 2026-05-03 23:02 | 16.04611 | -22.91684 | 1830 ft | 140 kts | 17° |
| 2026-05-03 23:02 | 16.05551 | -22.91393 | 1648 ft | 142 kts | 17° |
| 2026-05-03 23:02 | 16.06480 | -22.91105 | 1481 ft | 135 kts | 18° |
| 2026-05-03 23:02 | 16.07371 | -22.90830 | 1328 ft | 132 kts | 19° |
| 2026-05-03 23:03 | 16.08245 | -22.90560 | 1172 ft | 129 kts | 19° |
| 2026-05-03 23:03 | 16.09096 | -22.90296 | 999 ft | 127 kts | 16° |
| 2026-05-03 23:03 | 16.09947 | -22.90031 | 835 ft | 129 kts | 17° |
| 2026-05-03 23:03 | 16.10814 | -22.89762 | 675 ft | 129 kts | 19° |
| 2026-05-03 23:04 | 16.11666 | -22.89499 | 500 ft | 128 kts | 18° |
| 2026-05-03 23:04 | 16.12536 | -22.89284 | 327 ft | 128 kts | 14° |
| 2026-05-03 23:04 | 16.13360 | -22.88994 | 92 ft | 120 kts | 21° |
| 2026-05-03 23:04 | 16.14059 | -22.88767 | 57 ft | 77 kts | 16° |
| 2026-05-03 23:05 | 16.14318 | -22.88685 | 62 ft | 20 kts | 17° |
| 2026-05-03 23:05 | 16.14447 | -22.88642 | 63 ft | 19 kts | 18° |
| 2026-05-03 23:05 | 16.14548 | -22.88640 | 70 ft | 12 kts | 349° |
| 2026-05-03 23:05 | 16.14618 | -22.88615 | 62 ft | 9 kts | 85° |
| 2026-05-03 23:06 | 16.14564 | -22.88604 | 63 ft | 9 kts | 193° |
| 2026-05-03 23:06 | 16.14501 | -22.88619 | 63 ft | 10 kts | 194° |
| 2026-05-03 23:06 | 16.14380 | -22.88661 | 64 ft | 29 kts | 198° |
| 2026-05-03 23:06 | 16.14177 | -22.88726 | 61 ft | 32 kts | 197° |
| 2026-05-03 23:07 | 16.13952 | -22.88797 | 53 ft | 36 kts | 196° |
| 2026-05-03 23:07 | 16.13712 | -22.88870 | 53 ft | 23 kts | 196° |
| 2026-05-03 23:07 | 16.13636 | -22.88893 | 50 ft | 10 kts | 199° |
| 2026-05-03 23:07 | 16.13613 | -22.88953 | 52 ft | 9 kts | 284° |
| 2026-05-03 23:08 | 16.13601 | -22.89005 | 49 ft | 8 kts | 209° |
| 2026-05-03 23:08 | 16.13560 | -22.89028 | 51 ft | 6 kts | 258° |
| 2026-05-03 23:08 | 16.13551 | -22.89068 | 51 ft | 6 kts | 258° |
| 2026-05-03 23:08 | 16.13558 | -22.89105 | 51 ft | 5 kts | 285° |
| 2026-05-03 23:09 | 16.13561 | -22.89114 | 51 ft | 0 kts | 286° |
| 2026-05-03 23:09 | 16.13564 | -22.89122 | 49 ft | 0 kts | 295° |